Time;durP1;ratioP1;P1;durP2;ratioP2;P2;SDS_P1;SDS_P2;PMS_P1;PMS_P2;Temp;Humidity;BMP_temperature;BMP_pressure;BME280_temperature;BME280_humidity;BME280_pressure;Samples;Min_cycle;Max_cycle;Signal;HPM_P1;HPM_P2
2023/12/31 00:00:09;;;;;;;60.80;26.90;;;;;;;1.34;73.04;101402.52;106921;1256;106810;-72
2023/12/31 00:02:58;;;;;;;48.00;26.70;;;;;;;1.30;72.76;101397.55;107142;1256;97932;-71
2023/12/31 00:05:27;;;;;;;48.50;26.00;;;;;;;1.25;72.87;101407.84;107315;1255;97826;-71
2023/12/31 00:07:55;;;;;;;53.40;27.10;;;;;;;1.18;72.66;101407.92;107314;1256;112100;-71
2023/12/31 00:10:23;;;;;;;57.10;27.20;;;;;;;1.12;72.62;101408.50;107323;1256;108538;-73
2023/12/31 00:12:52;;;;;;;49.60;28.10;;;;;;;1.11;72.97;101408.91;107217;1256;107901;-70
2023/12/31 00:15:20;;;;;;;53.30;27.90;;;;;;;1.08;72.88;101410.79;107292;1256;97860;-71
2023/12/31 00:17:48;;;;;;;59.50;27.50;;;;;;;1.05;72.84;101414.96;107292;1256;97841;-70
2023/12/31 00:20:17;;;;;;;49.10;27.80;;;;;;;1.02;72.91;101412.60;107339;1254;111182;-71
2023/12/31 00:22:45;;;;;;;48.50;25.60;;;;;;;1.01;73.01;101417.41;107239;1256;108099;-71
2023/12/31 00:25:14;;;;;;;56.60;28.80;;;;;;;0.99;73.04;101418.38;107259;1259;108339;-71
2023/12/31 00:27:42;;;;;;;48.60;28.90;;;;;;;0.98;72.99;101413.30;107299;1257;97881;-70
2023/12/31 00:30:12;;;;;;;50.60;26.70;;;;;;;0.96;73.05;101412.99;107264;1257;98364;-72
2023/12/31 00:32:40;;;;;;;53.70;29.50;;;;;;;0.95;73.10;101418.86;107158;1257;112076;-71
2023/12/31 00:35:09;;;;;;;48.40;27.40;;;;;;;0.96;73.18;101418.30;107361;1255;107486;-72
2023/12/31 00:37:37;;;;;;;47.60;27.30;;;;;;;0.95;73.09;101414.96;107232;1256;108348;-71
2023/12/31 00:40:07;;;;;;;53.50;27.60;;;;;;;0.94;73.24;101413.39;107237;1259;97999;-71
2023/12/31 00:42:35;;;;;;;51.90;27.90;;;;;;;0.95;73.24;101414.61;107297;1254;98402;-71
2023/12/31 00:45:04;;;;;;;47.80;27.20;;;;;;;0.94;73.25;101416.57;107238;1257;113066;-71
2023/12/31 00:47:33;;;;;;;47.30;26.70;;;;;;;0.95;73.37;101424.14;107309;1257;107766;-70
2023/12/31 00:50:02;;;;;;;50.20;27.70;;;;;;;0.97;73.47;101422.16;107070;1262;108838;-71
2023/12/31 00:52:30;;;;;;;50.40;27.50;;;;;;;0.99;73.56;101421.00;107278;1256;97847;-71
2023/12/31 00:54:59;;;;;;;50.50;27.20;;;;;;;1.04;73.90;101413.75;107276;1257;97918;-70
2023/12/31 00:57:29;;;;;;;48.00;25.60;;;;;;;1.08;74.05;101409.53;107329;1257;112999;-71
2023/12/31 00:59:59;;;;;;;52.50;27.10;;;;;;;1.14;74.26;101409.64;107327;1257;108505;-71
2023/12/31 01:02:28;;;;;;;45.40;24.40;;;;;;;1.19;74.32;101406.10;107340;1257;108373;-70
2023/12/31 01:04:58;;;;;;;43.60;24.60;;;;;;;1.24;74.40;101405.76;107303;1258;97740;-72
2023/12/31 01:07:26;;;;;;;48.90;27.40;;;;;;;1.28;74.64;101407.36;107278;1255;97936;-71
2023/12/31 01:09:54;;;;;;;47.20;24.90;;;;;;;1.32;74.77;101398.02;107276;1257;112321;-73
2023/12/31 01:12:23;;;;;;;41.50;24.10;;;;;;;1.37;74.84;101390.94;107328;1257;108448;-71
2023/12/31 01:14:51;;;;;;;48.40;26.00;;;;;;;1.42;75.00;101389.12;107195;1256;108504;-69
2023/12/31 01:17:19;;;;;;;47.60;26.10;;;;;;;1.49;75.15;101388.34;107244;1256;97961;-71
2023/12/31 01:19:48;;;;;;;53.00;28.90;;;;;;;1.54;75.41;101386.86;107277;1257;97708;-71
2023/12/31 01:22:16;;;;;;;45.30;25.60;;;;;;;1.60;75.30;101387.89;107278;1257;111841;-71
2023/12/31 01:24:45;;;;;;;53.50;27.50;;;;;;;1.63;75.17;101387.39;107325;1257;108442;-71
2023/12/31 01:27:13;;;;;;;50.70;26.40;;;;;;;1.63;75.12;101387.73;107296;1254;107586;-71
2023/12/31 01:29:42;;;;;;;43.10;25.20;;;;;;;1.62;74.93;101389.20;107321;1255;97913;-71
2023/12/31 01:32:10;;;;;;;47.70;25.30;;;;;;;1.61;75.22;101382.36;107099;1255;98359;-73
2023/12/31 01:34:39;;;;;;;55.90;27.10;;;;;;;1.62;75.27;101380.89;107278;1256;111221;-72
2023/12/31 01:37:07;;;;;;;50.40;26.30;;;;;;;1.60;75.00;101389.29;107132;1257;108359;-70
2023/12/31 01:39:35;;;;;;;50.20;26.50;;;;;;;1.58;75.09;101389.89;107270;1257;107555;-70
2023/12/31 01:42:03;;;;;;;44.90;26.60;;;;;;;1.53;74.86;101393.80;107115;1257;97913;-73
2023/12/31 01:44:32;;;;;;;51.20;27.30;;;;;;;1.51;75.05;101390.55;107340;1256;98457;-71
2023/12/31 01:47:00;;;;;;;49.70;26.10;;;;;;;1.49;75.10;101384.41;107274;1257;111993;-71
2023/12/31 01:49:32;;;;;;;55.10;27.50;;;;;;;1.47;75.40;101382.55;107213;1257;108240;-72
2023/12/31 01:52:02;;;;;;;51.80;26.00;;;;;;;1.46;75.21;101387.55;107244;1257;107837;-71
2023/12/31 01:54:32;;;;;;;51.60;25.10;;;;;;;1.44;75.16;101381.61;107088;1256;97722;-72
2023/12/31 01:57:00;;;;;;;48.60;24.50;;;;;;;1.43;75.39;101379.89;107375;1254;97905;-72
2023/12/31 01:59:28;;;;;;;50.90;25.60;;;;;;;1.45;75.60;101390.23;107187;1257;111149;-71
2023/12/31 02:01:58;;;;;;;46.20;26.50;;;;;;;1.45;75.44;101393.09;107316;1257;108773;-71
2023/12/31 02:04:35;;;;;;;42.60;24.80;;;;;;;1.44;75.48;101390.66;107236;1257;107924;-71
2023/12/31 02:07:03;;;;;;;48.70;24.50;;;;;;;1.42;75.47;101392.85;107111;1256;97888;-70
2023/12/31 02:09:31;;;;;;;43.70;24.80;;;;;;;1.38;75.28;101390.70;107287;1256;98369;-72
2023/12/31 02:12:00;;;;;;;42.90;24.20;;;;;;;1.33;75.13;101396.70;107163;1257;111425;-70
2023/12/31 02:14:28;;;;;;;41.70;22.60;;;;;;;1.28;74.87;101400.64;107264;1259;106965;-71
2023/12/31 02:16:57;;;;;;;39.00;22.50;;;;;;;1.22;74.68;101408.10;107214;1257;106919;-72
2023/12/31 02:19:26;;;;;;;44.70;24.10;;;;;;;1.19;74.68;101411.23;107318;1257;98548;-73
2023/12/31 02:21:54;;;;;;;42.40;23.70;;;;;;;1.15;74.85;101408.91;107192;1255;97838;-70
2023/12/31 02:24:31;;;;;;;45.60;24.60;;;;;;;1.13;74.89;101405.80;107259;1256;111775;-72
2023/12/31 02:27:00;;;;;;;51.00;24.80;;;;;;;1.14;75.04;101408.27;107182;1254;108048;-71
2023/12/31 02:29:28;;;;;;;45.00;24.10;;;;;;;1.13;74.79;101404.95;107285;1255;107811;-72
2023/12/31 02:31:57;;;;;;;40.40;22.80;;;;;;;1.08;74.61;101403.17;107251;1256;97840;-71
2023/12/31 02:34:28;;;;;;;42.90;24.00;;;;;;;1.02;74.62;101403.25;107295;1259;97802;-72
2023/12/31 02:36:58;;;;;;;40.80;24.20;;;;;;;0.96;74.56;101407.34;107241;1259;113103;-70
2023/12/31 02:39:26;;;;;;;41.50;23.80;;;;;;;0.89;74.38;101407.41;107323;1259;108052;-71
2023/12/31 02:41:55;;;;;;;42.30;23.20;;;;;;;0.82;74.39;101409.10;107285;1257;106719;-72
2023/12/31 02:44:23;;;;;;;43.10;24.40;;;;;;;0.73;74.24;101412.96;107334;1256;97851;-72
2023/12/31 02:46:51;;;;;;;44.80;25.10;;;;;;;0.65;74.25;101415.55;107255;1259;97859;-73
2023/12/31 02:49:19;;;;;;;46.20;24.00;;;;;;;0.57;74.19;101413.04;107275;1257;111567;-72
2023/12/31 02:51:48;;;;;;;44.40;24.80;;;;;;;0.45;74.10;101417.48;107124;1257;107924;-72
2023/12/31 02:54:17;;;;;;;45.80;24.30;;;;;;;0.35;73.98;101413.44;107300;1254;108250;-72
2023/12/31 02:56:45;;;;;;;45.70;23.80;;;;;;;0.26;73.96;101415.02;107221;1256;97753;-70
2023/12/31 02:59:13;;;;;;;40.90;23.90;;;;;;;0.18;73.97;101418.81;107237;1256;98398;-70
2023/12/31 03:01:41;;;;;;;38.40;22.80;;;;;;;0.11;74.01;101418.15;107310;1256;112220;-72
2023/12/31 03:04:11;;;;;;;45.80;24.00;;;;;;;0.05;74.07;101423.65;107293;1259;108554;-70
2023/12/31 03:06:39;;;;;;;44.30;24.70;;;;;;;-0.01;73.95;101426.33;107317;1259;108420;-71
2023/12/31 03:09:09;;;;;;;43.00;26.40;;;;;;;-0.08;73.92;101423.92;107097;1258;97865;-70
2023/12/31 03:11:37;;;;;;;43.60;24.50;;;;;;;-0.13;73.89;101425.86;107258;1257;98334;-72
2023/12/31 03:14:06;;;;;;;44.20;23.80;;;;;;;-0.19;73.89;101433.61;107156;1257;111366;-72
2023/12/31 03:16:34;;;;;;;47.10;23.20;;;;;;;-0.24;73.93;101442.10;107241;1257;107620;-72
2023/12/31 03:19:04;;;;;;;41.00;23.80;;;;;;;-0.29;73.90;101443.67;107369;1257;107623;-67
2023/12/31 03:21:33;;;;;;;47.10;22.40;;;;;;;-0.35;73.98;101446.33;107248;1257;97848;-69
2023/12/31 03:24:01;;;;;;;34.40;20.40;;;;;;;-0.39;74.03;101455.23;107242;1256;97769;-69
2023/12/31 03:26:30;;;;;;;38.00;20.70;;;;;;;-0.42;74.04;101456.76;107209;1257;111315;-71
2023/12/31 03:28:58;;;;;;;38.50;21.50;;;;;;;-0.43;74.15;101459.44;107251;1257;107924;-73
2023/12/31 03:31:26;;;;;;;36.50;20.10;;;;;;;-0.45;74.39;101462.16;107267;1256;108312;-73
2023/12/31 03:33:55;;;;;;;35.80;19.30;;;;;;;-0.46;74.46;101464.82;107234;1256;97852;-72
2023/12/31 03:36:24;;;;;;;35.10;20.00;;;;;;;-0.50;74.54;101465.10;107249;1256;97880;-72
2023/12/31 03:38:54;;;;;;;34.70;19.30;;;;;;;-0.51;74.89;101470.23;107298;1257;112183;-72
2023/12/31 03:41:22;;;;;;;36.20;19.50;;;;;;;-0.49;75.13;101467.20;107255;1257;107197;-72
2023/12/31 03:43:51;;;;;;;37.30;19.60;;;;;;;-0.47;75.41;101464.66;107299;1254;108369;-71
2023/12/31 03:46:20;;;;;;;36.70;19.20;;;;;;;-0.45;75.41;101470.59;107219;1256;97845;-69
2023/12/31 03:48:48;;;;;;;36.80;19.20;;;;;;;-0.44;75.52;101468.63;107229;1256;98424;-67
2023/12/31 03:51:17;;;;;;;37.10;19.20;;;;;;;-0.42;75.73;101476.48;107220;1257;111709;-72
2023/12/31 03:53:45;;;;;;;29.50;18.30;;;;;;;-0.40;75.59;101478.74;107085;1254;107219;-68
2023/12/31 03:56:14;;;;;;;32.90;19.80;;;;;;;-0.40;76.03;101478.52;107342;1257;107814;-68
2023/12/31 03:58:43;;;;;;;42.00;18.90;;;;;;;-0.40;75.87;101480.99;107333;1257;99191;-68
2023/12/31 04:01:11;;;;;;;29.80;17.70;;;;;;;-0.38;76.17;101491.68;107370;1254;97837;-72
2023/12/31 04:03:40;;;;;;;29.70;17.10;;;;;;;-0.35;75.80;101497.60;107266;1257;111486;-72
2023/12/31 04:06:08;;;;;;;31.00;18.10;;;;;;;-0.36;75.83;101499.91;107190;1257;108578;-72
2023/12/31 04:08:37;;;;;;;29.80;17.40;;;;;;;-0.35;75.85;101496.02;107221;1257;106918;-71
2023/12/31 04:11:06;;;;;;;36.50;18.50;;;;;;;-0.34;75.93;101499.34;107299;1257;97854;-71
2023/12/31 04:13:35;;;;;;;30.10;17.20;;;;;;;-0.35;75.84;101499.54;107298;1257;97851;-71
2023/12/31 04:16:04;;;;;;;35.60;17.60;;;;;;;-0.36;75.73;101496.91;107078;1257;111179;-70
2023/12/31 04:18:32;;;;;;;29.90;16.40;;;;;;;-0.36;75.67;101499.20;107302;1257;106947;-69
2023/12/31 04:21:02;;;;;;;33.70;17.00;;;;;;;-0.38;75.50;101498.75;107234;1257;106295;-68
2023/12/31 04:23:30;;;;;;;28.00;16.10;;;;;;;-0.42;75.46;101501.17;107258;1256;97849;-72
2023/12/31 04:25:58;;;;;;;28.80;16.80;;;;;;;-0.43;75.52;101501.73;107253;1256;97752;-69
2023/12/31 04:28:27;;;;;;;33.80;17.60;;;;;;;-0.44;75.55;101501.58;107350;1257;110357;-72
2023/12/31 04:30:56;;;;;;;32.50;17.30;;;;;;;-0.46;75.53;101497.76;107344;1257;107348;-68
2023/12/31 04:33:24;;;;;;;33.10;18.40;;;;;;;-0.46;75.44;101499.36;107343;1257;107518;-68
2023/12/31 04:35:53;;;;;;;31.10;17.80;;;;;;;-0.48;75.36;101495.88;107240;1259;98063;-72
2023/12/31 04:38:21;;;;;;;29.90;18.20;;;;;;;-0.49;75.29;101496.09;107231;1257;97923;-72
2023/12/31 04:40:49;;;;;;;32.60;18.30;;;;;;;-0.53;75.11;101503.10;107270;1256;111392;-72
2023/12/31 04:43:18;;;;;;;29.40;16.20;;;;;;;-0.57;75.15;101498.80;107286;1256;108270;-73
2023/12/31 04:45:47;;;;;;;31.70;20.00;;;;;;;-0.67;74.58;101503.14;107253;1256;107881;-73
2023/12/31 04:48:16;;;;;;;29.40;16.90;;;;;;;-0.75;74.97;101484.71;107218;1260;97934;-73
2023/12/31 04:50:45;;;;;;;28.10;15.60;;;;;;;-0.75;75.21;101481.54;107274;1257;97867;-71
2023/12/31 04:53:15;;;;;;;26.60;14.80;;;;;;;-0.79;74.99;101488.88;107236;1256;110803;-68
2023/12/31 04:55:43;;;;;;;25.20;15.20;;;;;;;-0.88;74.98;101487.91;107273;1257;108707;-67
2023/12/31 04:58:12;;;;;;;27.90;16.00;;;;;;;-0.95;75.17;101499.91;107217;1256;106924;-68
2023/12/31 05:00:41;;;;;;;38.60;18.00;;;;;;;-0.94;75.17;101513.09;107240;1257;97863;-67
2023/12/31 05:03:10;;;;;;;30.30;15.90;;;;;;;-0.99;75.23;101522.21;107254;1257;98386;-66
2023/12/31 05:05:38;;;;;;;30.40;15.20;;;;;;;-1.02;75.08;101523.88;107227;1259;111833;-66
2023/12/31 05:08:07;;;;;;;27.10;15.70;;;;;;;-1.05;75.09;101526.97;107199;1256;107905;-72
2023/12/31 05:10:37;;;;;;;31.80;17.70;;;;;;;-1.05;75.37;101520.99;107209;1257;108323;-71
2023/12/31 05:13:05;;;;;;;31.50;17.40;;;;;;;-1.03;75.49;101518.95;107267;1257;97863;-71
2023/12/31 05:15:35;;;;;;;31.30;16.30;;;;;;;-0.99;75.46;101522.21;107286;1257;97736;-72
2023/12/31 05:18:04;;;;;;;29.40;16.10;;;;;;;-0.97;75.58;101539.94;107228;1257;111462;-72
2023/12/31 05:20:32;;;;;;;40.20;19.20;;;;;;;-0.97;75.14;101545.92;107294;1255;107342;-72
2023/12/31 05:23:01;;;;;;;34.70;21.30;;;;;;;-0.98;75.44;101538.73;107261;1257;107564;-71
2023/12/31 05:25:29;;;;;;;36.50;19.80;;;;;;;-0.99;75.25;101533.31;107279;1257;97838;-72
2023/12/31 05:27:58;;;;;;;40.70;20.70;;;;;;;-0.98;75.38;101532.05;107183;1257;98377;-71
2023/12/31 05:30:26;;;;;;;37.60;20.90;;;;;;;-0.97;75.43;101535.88;107215;1257;111881;-71
2023/12/31 05:32:54;;;;;;;46.10;25.40;;;;;;;-0.96;75.55;101534.98;107283;1257;108002;-70
2023/12/31 05:35:23;;;;;;;52.50;26.10;;;;;;;-0.95;75.74;101539.54;107241;1256;107892;-69
2023/12/31 05:37:51;;;;;;;46.80;22.40;;;;;;;-0.94;75.70;101542.67;107209;1257;97811;-66
2023/12/31 05:40:19;;;;;;;38.20;22.30;;;;;;;-0.94;75.72;101534.92;107270;1257;98407;-67
2023/12/31 05:42:48;;;;;;;54.60;26.60;;;;;;;-0.96;75.52;101531.64;107255;1257;112010;-69
2023/12/31 05:45:18;;;;;;;46.80;26.00;;;;;;;-0.97;75.57;101527.61;107257;1256;108172;-72
2023/12/31 05:47:47;;;;;;;45.60;27.30;;;;;;;-0.96;75.77;101531.45;107271;1257;107792;-73
2023/12/31 05:50:16;;;;;;;53.80;30.50;;;;;;;-0.95;75.84;101535.84;107120;1257;97935;-73
2023/12/31 05:52:46;;;;;;;57.20;32.60;;;;;;;-0.96;75.45;101537.43;107237;1259;97842;-72
2023/12/31 05:55:14;;;;;;;68.00;38.40;;;;;;;-0.99;75.15;101534.17;107278;1257;111270;-72
2023/12/31 05:57:43;;;;;;;52.00;31.00;;;;;;;-1.02;75.30;101534.09;107311;1257;108387;-71
2023/12/31 06:00:12;;;;;;;55.20;29.70;;;;;;;-1.05;75.29;101529.25;107170;1257;107608;-70
2023/12/31 06:02:40;;;;;;;51.10;28.70;;;;;;;-1.06;75.30;101529.09;107132;1257;97839;-73
2023/12/31 06:05:09;;;;;;;45.10;26.80;;;;;;;-1.08;75.25;101528.44;107089;1257;97842;-73
2023/12/31 06:07:37;;;;;;;49.30;29.60;;;;;;;-1.10;75.53;101532.55;107351;1257;112146;-72
2023/12/31 06:10:07;;;;;;;69.90;26.40;;;;;;;-1.11;75.42;101535.73;107233;1257;107853;-71
2023/12/31 06:12:36;;;;;;;45.80;21.50;;;;;;;-1.10;75.31;101543.64;107289;1257;106653;-72
2023/12/31 06:15:06;;;;;;;39.50;19.30;;;;;;;-1.12;75.09;101550.95;107220;1257;97854;-67
2023/12/31 06:17:41;;;;;;;36.80;19.90;;;;;;;-1.15;75.33;101559.27;107192;1257;97752;-68
2023/12/31 06:20:09;;;;;;;37.30;20.60;;;;;;;-1.17;75.30;101566.72;107259;1257;111905;-73
2023/12/31 06:22:38;;;;;;;37.50;18.40;;;;;;;-1.17;75.67;101570.94;107286;1257;107677;-71
2023/12/31 06:25:07;;;;;;;40.40;19.80;;;;;;;-1.14;75.59;101576.31;107257;1258;107188;-71
2023/12/31 06:27:39;;;;;;;35.00;18.90;;;;;;;-1.12;75.55;101579.10;107268;1257;97848;-71
2023/12/31 06:30:08;;;;;;;36.80;18.70;;;;;;;-1.09;75.58;101585.33;107220;1259;97724;-72
2023/12/31 06:32:37;;;;;;;36.00;20.80;;;;;;;-1.05;75.80;101589.81;107214;1256;110808;-70
2023/12/31 06:35:07;;;;;;;35.40;20.70;;;;;;;-0.99;75.86;101595.27;107170;1260;107956;-71
2023/12/31 06:37:35;;;;;;;40.80;22.30;;;;;;;-0.92;76.03;101603.91;107200;1260;108248;-72
2023/12/31 06:40:05;;;;;;;40.50;23.30;;;;;;;-0.88;75.67;101606.28;107197;1256;97832;-73
2023/12/31 06:42:33;;;;;;;54.80;28.90;;;;;;;-0.89;75.44;101604.71;107284;1260;98495;-72
2023/12/31 06:45:02;;;;;;;59.10;35.00;;;;;;;-0.86;75.74;101603.38;107253;1257;111423;-73
2023/12/31 06:47:31;;;;;;;56.10;30.20;;;;;;;-0.82;75.67;101605.21;107235;1260;107316;-74
2023/12/31 06:49:59;;;;;;;65.40;40.50;;;;;;;-0.74;75.98;101604.30;106986;1257;107916;-73
2023/12/31 06:52:27;;;;;;;73.10;42.00;;;;;;;-0.64;75.91;101608.95;107195;1260;97861;-70
2023/12/31 06:54:56;;;;;;;71.90;40.50;;;;;;;-0.54;76.32;101607.97;107199;1260;97941;-68
2023/12/31 06:57:24;;;;;;;71.50;41.50;;;;;;;-0.44;76.60;101613.84;106952;1257;112208;-68
2023/12/31 06:59:52;;;;;;;59.50;32.00;;;;;;;-0.35;76.26;101619.05;107224;1256;108510;-72
2023/12/31 07:02:21;;;;;;;65.10;36.10;;;;;;;-0.29;76.36;101619.41;107208;1260;107320;-72
2023/12/31 07:04:49;;;;;;;61.40;33.30;;;;;;;-0.27;75.88;101624.46;107181;1260;97934;-73
2023/12/31 07:07:19;;;;;;;65.30;35.50;;;;;;;-0.27;75.85;101627.27;107242;1257;98354;-72
2023/12/31 07:09:48;;;;;;;66.00;36.40;;;;;;;-0.23;75.80;101623.80;107194;1257;111416;-72
2023/12/31 07:12:16;;;;;;;59.10;32.60;;;;;;;-0.16;75.91;101620.95;107189;1257;107999;-72
2023/12/31 07:14:44;;;;;;;57.60;31.40;;;;;;;-0.09;76.14;101625.50;107159;1257;107549;-71
2023/12/31 07:17:12;;;;;;;59.40;33.20;;;;;;;-0.01;76.29;101628.45;107230;1257;98907;-72
2023/12/31 07:19:41;;;;;;;59.20;35.60;;;;;;;0.08;76.18;101622.34;107264;1257;97716;-71
2023/12/31 07:22:09;;;;;;;67.60;38.10;;;;;;;0.21;76.37;101623.02;107233;1257;111714;-71
2023/12/31 07:24:39;;;;;;;64.20;37.90;;;;;;;0.38;76.49;101621.57;107261;1259;107909;-71
2023/12/31 07:27:09;;;;;;;86.50;48.70;;;;;;;0.54;76.29;101617.54;107292;1256;106916;-69
2023/12/31 07:29:38;;;;;;;73.10;46.70;;;;;;;0.63;76.20;101625.88;107201;1257;97982;-66
2023/12/31 07:32:06;;;;;;;75.70;44.60;;;;;;;0.70;76.01;101624.42;107209;1257;97698;-67
2023/12/31 07:34:34;;;;;;;77.20;42.40;;;;;;;0.76;76.26;101630.39;107238;1254;111929;-72
2023/12/31 07:37:03;;;;;;;73.80;44.00;;;;;;;0.77;76.30;101632.11;107380;1259;108636;-71
2023/12/31 07:39:32;;;;;;;78.00;44.90;;;;;;;0.83;76.29;101647.13;107394;1254;105946;-71
2023/12/31 07:42:00;;;;;;;78.70;45.50;;;;;;;0.91;76.31;101647.20;107353;1255;97835;-73
2023/12/31 07:44:29;;;;;;;73.40;44.10;;;;;;;1.00;76.30;101641.42;107384;1259;97721;-73
2023/12/31 07:46:57;;;;;;;77.80;46.60;;;;;;;1.10;76.48;101634.55;107276;1256;112192;-71
2023/12/31 07:49:25;;;;;;;81.00;44.90;;;;;;;1.18;76.21;101639.56;107273;1259;108608;-71
2023/12/31 07:51:54;;;;;;;78.40;47.00;;;;;;;1.25;76.00;101630.65;107219;1258;107556;-72
2023/12/31 07:54:23;;;;;;;77.00;46.20;;;;;;;1.36;76.20;101630.98;107136;1261;97861;-70
2023/12/31 07:56:52;;;;;;;85.30;47.30;;;;;;;1.48;76.28;101634.11;107155;1256;98605;-72
2023/12/31 07:59:20;;;;;;;81.30;48.90;;;;;;;1.57;76.14;101636.92;107159;1260;111382;-71
2023/12/31 08:01:48;;;;;;;84.20;47.40;;;;;;;1.66;75.99;101636.41;107170;1260;108254;-66
2023/12/31 08:04:16;;;;;;;80.60;49.90;;;;;;;1.77;75.80;101635.13;107149;1259;108330;-67
2023/12/31 08:06:45;;;;;;;80.40;50.50;;;;;;;1.85;75.83;101631.84;107161;1259;97834;-67
2023/12/31 08:09:15;;;;;;;81.90;48.60;;;;;;;1.95;75.96;101635.54;107113;1257;97734;-74
2023/12/31 08:11:43;;;;;;;100.30;58.40;;;;;;;2.06;75.87;101636.34;107100;1262;112108;-72
2023/12/31 08:14:11;;;;;;;101.50;59.70;;;;;;;2.17;75.71;101641.57;107173;1257;107554;-74
2023/12/31 08:16:39;;;;;;;97.70;54.70;;;;;;;2.29;75.60;101647.26;107136;1260;107938;-72
2023/12/31 08:19:08;;;;;;;103.90;57.30;;;;;;;2.34;75.36;101645.11;107233;1257;97937;-71
2023/12/31 08:21:36;;;;;;;97.70;54.30;;;;;;;2.39;75.24;101652.04;107194;1256;99034;-72
2023/12/31 08:24:05;;;;;;;84.60;50.50;;;;;;;2.42;75.02;101653.17;107154;1258;112681;-70
2023/12/31 08:26:36;;;;;;;93.80;54.50;;;;;;;2.41;74.65;101653.88;107146;1257;108273;-71
2023/12/31 08:29:05;;;;;;;86.20;50.90;;;;;;;2.45;74.88;101648.79;107191;1257;107490;-73
2023/12/31 08:31:33;;;;;;;87.60;51.10;;;;;;;2.45;75.02;101641.89;107134;1257;97838;-70
2023/12/31 08:34:04;;;;;;;85.40;52.00;;;;;;;2.44;74.89;101643.50;107158;1258;97699;-71
2023/12/31 08:36:33;;;;;;;82.80;50.50;;;;;;;2.64;74.87;101637.73;107188;1257;111866;-67
2023/12/31 08:39:02;;;;;;;86.30;51.90;;;;;;;3.35;74.32;101638.25;107176;1257;107803;-68
2023/12/31 08:41:30;;;;;;;90.40;51.20;;;;;;;4.00;73.76;101635.49;107171;1259;108158;-73
2023/12/31 08:43:59;;;;;;;83.50;51.60;;;;;;;4.61;73.22;101631.13;106348;1257;1083015;-72
2023/12/31 08:46:27;;;;;;;75.40;46.00;;;;;;;5.27;72.94;101626.19;107208;1257;98291;-72
2023/12/31 08:48:56;;;;;;;73.30;45.70;;;;;;;5.95;73.21;101625.79;107151;1257;111456;-73
2023/12/31 08:51:24;;;;;;;65.70;42.10;;;;;;;6.59;73.07;101627.92;107127;1262;108016;-71
2023/12/31 08:53:54;;;;;;;66.10;42.70;;;;;;;7.13;71.85;101624.55;107086;1260;107252;-72
2023/12/31 08:56:23;;;;;;;66.30;42.50;;;;;;;7.68;70.58;101622.29;107093;1257;97865;-71
2023/12/31 08:58:51;;;;;;;62.00;41.20;;;;;;;8.34;70.70;101618.06;107152;1257;98405;-72
2023/12/31 09:01:21;;;;;;;60.60;41.30;;;;;;;8.85;68.78;101612.27;107062;1260;111826;-72
2023/12/31 09:03:49;;;;;;;53.30;36.60;;;;;;;9.47;68.72;101602.20;107135;1262;108339;-71
2023/12/31 09:06:18;;;;;;;50.10;36.10;;;;;;;10.18;67.89;101601.48;107111;1257;108603;-71
2023/12/31 09:08:47;;;;;;;53.40;36.70;;;;;;;10.68;64.60;101592.20;107151;1260;97848;-73
2023/12/31 09:11:16;;;;;;;54.70;35.90;;;;;;;10.92;63.24;101586.09;107226;1260;97819;-70
2023/12/31 09:13:45;;;;;;;50.10;35.80;;;;;;;11.31;62.89;101583.66;107132;1260;111611;-72
2023/12/31 09:16:13;;;;;;;51.50;36.00;;;;;;;11.79;62.11;101579.79;107120;1256;107003;-74
2023/12/31 09:18:42;;;;;;;47.20;35.00;;;;;;;12.27;61.37;101574.85;107144;1257;108040;-72
2023/12/31 09:21:10;;;;;;;45.40;32.40;;;;;;;12.64;60.03;101570.16;107148;1257;97844;-71
2023/12/31 09:23:38;;;;;;;49.10;34.60;;;;;;;12.94;59.02;101570.34;107096;1262;97857;-71
2023/12/31 09:26:07;;;;;;;46.80;33.00;;;;;;;13.29;57.87;101563.36;107134;1258;111971;-70
2023/12/31 09:28:35;;;;;;;48.40;32.30;;;;;;;13.60;57.39;101566.09;107174;1257;108744;-71
2023/12/31 09:31:03;;;;;;;45.80;32.60;;;;;;;13.65;56.88;101566.75;107189;1260;108222;-71
2023/12/31 09:33:32;;;;;;;46.30;33.00;;;;;;;13.45;56.29;101571.36;107174;1257;97847;-71
2023/12/31 09:36:04;;;;;;;45.60;31.20;;;;;;;13.08;55.78;101569.12;107228;1255;97933;-73
2023/12/31 09:38:32;;;;;;;43.20;31.50;;;;;;;12.74;55.74;101568.79;107300;1254;112327;-73
2023/12/31 09:41:05;;;;;;;48.80;33.50;;;;;;;13.15;55.36;101562.40;107205;1257;108870;-72
2023/12/31 09:43:35;;;;;;;49.50;32.60;;;;;;;13.68;54.43;101555.86;107195;1257;107468;-72
2023/12/31 09:46:06;;;;;;;43.60;30.80;;;;;;;14.10;52.95;101551.00;107190;1258;97829;-72
2023/12/31 09:48:36;;;;;;;39.80;28.60;;;;;;;14.50;52.81;101544.03;107162;1260;97930;-71
2023/12/31 09:51:05;;;;;;;45.10;29.20;;;;;;;14.92;52.09;101546.73;107218;1257;111754;-71
2023/12/31 09:53:35;;;;;;;36.30;26.70;;;;;;;15.36;50.91;101542.73;107153;1257;107776;-72
2023/12/31 09:56:05;;;;;;;35.50;26.70;;;;;;;15.71;50.18;101541.46;107177;1258;107615;-70
2023/12/31 09:58:36;;;;;;;38.10;28.80;;;;;;;16.16;49.35;101544.50;107091;1260;97885;-70
2023/12/31 10:01:05;;;;;;;41.60;28.40;;;;;;;16.70;48.68;101543.58;106992;1258;97719;-72
2023/12/31 10:03:34;;;;;;;35.70;25.90;;;;;;;17.20;47.56;101540.05;107188;1257;111821;-73
2023/12/31 10:06:05;;;;;;;33.30;24.30;;;;;;;17.67;46.85;101538.77;107163;1258;108377;-72
2023/12/31 10:08:35;;;;;;;43.30;24.70;;;;;;;18.22;45.36;101537.85;107211;1258;107240;-71
2023/12/31 10:11:03;;;;;;;35.00;24.00;;;;;;;18.71;44.67;101527.75;107114;1257;97844;-70
2023/12/31 10:13:32;;;;;;;36.10;23.30;;;;;;;19.09;43.97;101524.92;107127;1259;98427;-72
2023/12/31 10:16:12;;;;;;;33.80;20.80;;;;;;;19.37;42.56;101524.23;107153;1257;112257;-72
2023/12/31 10:18:41;;;;;;;28.70;17.90;;;;;;;19.67;41.52;101522.88;107123;1260;108386;-72
2023/12/31 10:21:12;;;;;;;24.60;16.90;;;;;;;19.79;40.81;101514.63;107104;1260;108233;-72
2023/12/31 10:23:40;;;;;;;35.00;25.80;;;;;;;20.00;40.29;101514.36;107117;1256;97842;-72
2023/12/31 10:26:09;;;;;;;44.40;31.70;;;;;;;20.29;39.19;101511.87;107147;1257;99027;-72
2023/12/31 10:28:37;;;;;;;51.00;36.60;;;;;;;20.39;38.75;101503.59;107213;1257;109724;-72
2023/12/31 10:31:06;;;;;;;50.00;35.20;;;;;;;20.63;39.09;101500.20;107182;1260;108770;-70
2023/12/31 10:33:37;;;;;;;52.00;36.90;;;;;;;20.86;37.54;101500.73;107134;1256;108477;-71
2023/12/31 10:36:06;;;;;;;48.90;35.10;;;;;;;21.01;37.64;101493.88;107170;1257;97851;-69
2023/12/31 10:38:45;;;;;;;48.90;36.70;;;;;;;21.09;37.85;101488.98;107208;1258;98440;-67
2023/12/31 10:41:25;;;;;;;57.40;39.50;;;;;;;21.26;37.28;101486.56;107189;1256;110817;-67
2023/12/31 10:43:59;;;;;;;52.00;36.60;;;;;;;21.21;36.55;101484.14;107129;1258;108629;-68
2023/12/31 10:46:29;;;;;;;49.30;35.90;;;;;;;21.23;35.60;101482.91;107156;1260;107385;-67
2023/12/31 10:49:04;;;;;;;39.30;29.30;;;;;;;21.24;35.69;101477.52;107160;1260;97880;-67
2023/12/31 10:51:35;;;;;;;42.60;31.60;;;;;;;21.40;35.19;101470.04;107136;1257;97741;-66
2023/12/31 10:54:11;;;;;;;37.60;27.20;;;;;;;21.53;35.86;101458.69;107122;1257;112009;-66
2023/12/31 10:56:41;;;;;;;33.50;25.10;;;;;;;21.82;35.25;101449.95;107169;1257;107095;-70
2023/12/31 10:59:12;;;;;;;28.70;23.20;;;;;;;21.97;35.06;101447.50;107142;1260;108245;-72
2023/12/31 11:01:43;;;;;;;31.70;23.80;;;;;;;21.89;34.02;101445.77;107081;1258;97826;-69
2023/12/31 11:04:14;;;;;;;36.80;25.30;;;;;;;21.65;34.07;101439.32;107073;1260;98383;-70
2023/12/31 11:06:47;;;;;;;32.40;23.50;;;;;;;21.71;33.64;101441.83;107104;1258;111372;-70